Time;durP1;ratioP1;P1;durP2;ratioP2;P2;SDS_P1;SDS_P2;PMS_P1;PMS_P2;Temp;Humidity;BMP_temperature;BMP_pressure;BME280_temperature;BME280_humidity;BME280_pressure;Samples;Min_cycle;Max_cycle;Signal;HPM_P1;HPM_P2
2022/08/15 00:02:21;;;;;;;6.32;4.13;;;;;;;;;;10453319;28;20061;-74
2022/08/15 00:07:21;;;;;;;10.50;5.00;;;;;;;;;;10453257;28;20536;-74
2022/08/15 00:12:22;;;;;;;9.52;5.15;;;;;;;;;;10453062;28;20021;-74
2022/08/15 00:17:23;;;;;;;7.53;5.23;;;;;;;;;;10452969;28;20021;-74
2022/08/15 00:22:23;;;;;;;8.60;6.22;;;;;;;;;;10451908;28;20328;-74
2022/08/15 00:27:26;;;;;;;8.90;6.22;;;;;;;;;;10452431;28;20017;-74
2022/08/15 00:32:27;;;;;;;8.77;5.72;;;;;;;;;;10454014;28;20071;-74
2022/08/15 00:37:27;;;;;;;10.73;6.72;;;;;;;;;;10452323;28;20025;-74
2022/08/15 00:42:27;;;;;;;10.35;7.57;;;;;;;;;;10453256;28;20060;-74
2022/08/15 00:47:28;;;;;;;11.70;7.32;;;;;;;;;;10451843;28;20158;-74
2022/08/15 00:52:30;;;;;;;12.15;8.45;;;;;;;;;;10451449;28;20403;-74
2022/08/15 00:57:39;;;;;;;14.23;9.48;;;;;;;;;;10451635;28;20029;-72
2022/08/15 01:02:40;;;;;;;13.00;8.50;;;;;;;;;;10435370;28;20099;-74
2022/08/15 01:07:41;;;;;;;14.32;8.10;;;;;;;;;;10451121;28;20045;-73
2022/08/15 01:12:41;;;;;;;11.75;7.38;;;;;;;;;;10450888;28;20406;-74
2022/08/15 01:17:43;;;;;;;13.43;8.03;;;;;;;;;;10450695;28;20027;-74
2022/08/15 01:22:43;;;;;;;12.07;7.90;;;;;;;;;;10450678;28;20088;-73
2022/08/15 01:27:47;;;;;;;11.95;8.05;;;;;;;;;;10451929;28;20411;-74
2022/08/15 01:32:47;;;;;;;11.13;7.75;;;;;;;;;;10449705;28;20025;-74
2022/08/15 01:37:51;;;;;;;12.25;8.05;;;;;;;;;;10417446;28;20459;-74
2022/08/15 01:42:52;;;;;;;12.63;8.57;;;;;;;;;;10451248;28;20052;-74
2022/08/15 01:48:06;;;;;;;14.82;8.45;;;;;;;;;;10433623;28;20482;-74
2022/08/15 01:53:30;;;;;;;12.10;8.38;;;;;;;;;;10413397;28;20106;-74
2022/08/15 01:58:35;;;;;;;14.98;9.27;;;;;;;;;;10449930;28;20021;-74
2022/08/15 02:03:36;;;;;;;15.55;9.13;;;;;;;;;;10463918;28;20075;-74
2022/08/15 02:08:37;;;;;;;14.95;9.15;;;;;;;;;;10465185;28;20482;-74
2022/08/15 02:13:37;;;;;;;14.65;8.98;;;;;;;;;;10449412;28;20048;-74
2022/08/15 02:18:38;;;;;;;21.20;10.17;;;;;;;;;;10422954;28;20024;-74
2022/08/15 02:23:38;;;;;;;16.17;9.35;;;;;;;;;;10417949;28;20021;-73
2022/08/15 02:28:39;;;;;;;19.08;9.23;;;;;;;;;;10449382;28;20024;-74
2022/08/15 02:33:39;;;;;;;14.65;9.52;;;;;;;;;;10449248;28;20102;-74
2022/08/15 02:38:40;;;;;;;16.17;9.30;;;;;;;;;;10449492;28;20106;-74
2022/08/15 02:43:43;;;;;;;16.17;9.48;;;;;;;;;;10451613;28;20331;-74
2022/08/15 02:48:44;;;;;;;19.58;10.50;;;;;;;;;;10456667;28;20084;-74
2022/08/15 02:53:47;;;;;;;15.98;10.50;;;;;;;;;;10456879;28;20453;-74
2022/08/15 02:58:47;;;;;;;16.38;10.85;;;;;;;;;;10455898;28;20120;-74
2022/08/15 03:03:48;;;;;;;17.15;10.73;;;;;;;;;;10455984;28;20408;-74
2022/08/15 03:08:49;;;;;;;20.27;11.90;;;;;;;;;;10455824;28;20527;-74
2022/08/15 03:13:51;;;;;;;18.65;10.57;;;;;;;;;;10455341;28;20180;-74
2022/08/15 03:18:52;;;;;;;19.88;12.18;;;;;;;;;;10455314;28;20025;-74
2022/08/15 03:23:53;;;;;;;20.60;12.85;;;;;;;;;;10438597;28;20035;-74
2022/08/15 03:28:54;;;;;;;26.35;12.60;;;;;;;;;;10455124;28;20104;-74
2022/08/15 03:33:55;;;;;;;25.77;13.93;;;;;;;;;;10454692;28;20044;-74
2022/08/15 03:38:55;;;;;;;25.08;14.68;;;;;;;;;;10455863;28;20021;-73
2022/08/15 03:43:55;;;;;;;27.65;13.82;;;;;;;;;;10453962;28;20060;-74
2022/08/15 03:48:56;;;;;;;25.42;14.32;;;;;;;;;;10454058;28;20394;-73
2022/08/15 03:53:58;;;;;;;24.55;14.00;;;;;;;;;;10454791;28;20486;-74
2022/08/15 03:58:59;;;;;;;31.80;18.17;;;;;;;;;;10465798;28;20052;-74
2022/08/15 04:04:00;;;;;;;26.83;15.25;;;;;;;;;;10453699;28;20045;-73
2022/08/15 04:09:00;;;;;;;26.88;15.50;;;;;;;;;;10453147;28;20536;-74
2022/08/15 04:14:00;;;;;;;28.70;15.95;;;;;;;;;;10452901;28;20017;-73
2022/08/15 04:19:00;;;;;;;26.30;15.00;;;;;;;;;;10452812;28;20410;-74
2022/08/15 04:24:01;;;;;;;28.92;15.98;;;;;;;;;;10452583;28;20445;-75
2022/08/15 04:29:02;;;;;;;28.35;15.73;;;;;;;;;;10452540;28;20028;-75
2022/08/15 04:34:03;;;;;;;27.67;15.18;;;;;;;;;;10453556;28;20052;-75
2022/08/15 04:39:03;;;;;;;29.75;16.80;;;;;;;;;;10453151;28;20044;-73
2022/08/15 04:44:04;;;;;;;33.40;16.75;;;;;;;;;;10451374;28;20041;-75
2022/08/15 04:49:04;;;;;;;30.02;16.58;;;;;;;;;;10451422;28;20055;-75
2022/08/15 04:54:05;;;;;;;27.85;15.13;;;;;;;;;;10451362;28;20049;-75
2022/08/15 04:59:05;;;;;;;28.33;16.52;;;;;;;;;;10452603;28;20033;-73
2022/08/15 05:04:05;;;;;;;37.83;19.08;;;;;;;;;;10456372;28;20119;-74
2022/08/15 05:09:05;;;;;;;41.70;20.83;;;;;;;;;;10449787;28;20017;-73
2022/08/15 05:14:06;;;;;;;39.40;21.52;;;;;;;;;;10450071;28;20036;-74
2022/08/15 05:19:06;;;;;;;37.58;21.38;;;;;;;;;;10451530;28;20527;-74
2022/08/15 05:24:06;;;;;;;36.30;19.13;;;;;;;;;;10451716;28;20498;-74
2022/08/15 05:29:07;;;;;;;31.93;18.20;;;;;;;;;;10449796;28;20096;-74
2022/08/15 05:34:07;;;;;;;38.17;20.60;;;;;;;;;;10450490;28;20020;-74
2022/08/15 05:39:18;;;;;;;36.38;19.67;;;;;;;;;;10451419;28;20033;-74
2022/08/15 05:44:28;;;;;;;34.60;19.75;;;;;;;;;;10448878;28;20139;-75
2022/08/15 05:49:50;;;;;;;38.67;20.63;;;;;;;;;;10449768;28;20045;-74
2022/08/15 05:55:00;;;;;;;38.67;19.83;;;;;;;;;;10448954;28;20021;-75
2022/08/15 06:00:04;;;;;;;32.72;17.65;;;;;;;;;;10449116;28;20021;-75
2022/08/15 06:05:05;;;;;;;26.25;15.32;;;;;;;;;;10448815;28;20024;-75
2022/08/15 06:10:09;;;;;;;25.48;15.88;;;;;;;;;;10449237;28;20033;-74
2022/08/15 06:15:14;;;;;;;28.33;15.57;;;;;;;;;;10448878;28;20033;-75
2022/08/15 06:20:17;;;;;;;41.58;16.25;;;;;;;;;;10453047;28;20173;-74
2022/08/15 06:25:24;;;;;;;28.13;15.50;;;;;;;;;;10456567;28;20054;-74
2022/08/15 06:30:30;;;;;;;30.70;15.52;;;;;;;;;;10456419;28;20032;-73
2022/08/15 06:35:41;;;;;;;32.05;17.27;;;;;;;;;;10457974;28;20090;-74
2022/08/15 06:40:48;;;;;;;34.47;18.98;;;;;;;;;;10456589;28;20041;-77
2022/08/15 06:45:50;;;;;;;33.70;17.98;;;;;;;;;;10455871;28;20041;-73
2022/08/15 06:50:51;;;;;;;27.80;17.52;;;;;;;;;;10455754;28;20017;-74
2022/08/15 06:55:52;;;;;;;33.72;18.20;;;;;;;;;;10457559;28;20024;-74
2022/08/15 07:01:00;;;;;;;29.20;17.08;;;;;;;;;;10456721;28;20141;-75
2022/08/15 07:06:01;;;;;;;32.53;17.73;;;;;;;;;;10455890;28;20113;-75
2022/08/15 07:11:06;;;;;;;29.85;18.50;;;;;;;;;;10454889;28;20412;-74
2022/08/15 07:16:06;;;;;;;31.67;19.40;;;;;;;;;;10455703;28;20025;-74
2022/08/15 07:21:08;;;;;;;32.72;18.48;;;;;;;;;;10454469;28;20025;-73
2022/08/15 07:26:10;;;;;;;31.40;17.73;;;;;;;;;;10425837;28;20051;-74
2022/08/15 07:31:13;;;;;;;34.13;20.15;;;;;;;;;;10454108;28;20021;-74
2022/08/15 07:36:19;;;;;;;34.42;19.13;;;;;;;;;;10416548;28;20075;-75
2022/08/15 07:41:27;;;;;;;29.45;17.48;;;;;;;;;;10453747;28;20128;-75
2022/08/15 07:46:36;;;;;;;29.25;16.75;;;;;;;;;;10454932;28;20487;-77
2022/08/15 07:51:42;;;;;;;26.70;15.55;;;;;;;;;;10453183;28;20047;-76
2022/08/15 07:56:49;;;;;;;30.42;15.07;;;;;;;;;;10453119;28;20032;-75
2022/08/15 08:01:51;;;;;;;24.50;13.47;;;;;;;;;;10453219;28;20033;-78
2022/08/15 08:07:02;;;;;;;23.25;13.90;;;;;;;;;;10452802;28;20438;-75
2022/08/15 08:12:12;;;;;;;22.95;14.30;;;;;;;;;;10452692;28;20013;-75
2022/08/15 08:17:16;;;;;;;20.30;14.65;;;;;;;;;;10435930;28;20136;-75
2022/08/15 08:22:20;;;;;;;20.58;13.85;;;;;;;;;;10424835;28;20518;-75
2022/08/15 08:27:20;;;;;;;27.65;15.20;;;;;;;;;;10448216;28;20400;-74
2022/08/15 08:32:36;;;;;;;21.88;12.50;;;;;;;;;;10403653;28;20028;-74
2022/08/15 08:37:42;;;;;;;19.40;10.98;;;;;;;;;;10451629;28;20388;-75
2022/08/15 08:42:42;;;;;;;;;;;;;;;;;;10450692;28;20049;-73
2022/08/15 08:48:01;;;;;;;16.08;10.43;;;;;;;;;;10434339;28;19908;-72
2022/08/15 08:53:16;;;;;;;14.10;9.40;;;;;;;;;;10452118;28;20024;-76
2022/08/15 08:58:37;;;;;;;13.25;9.57;;;;;;;;;;10450710;28;20476;-74
2022/08/15 09:03:40;;;;;;;17.10;11.18;;;;;;;;;;10433161;28;20036;-73
2022/08/15 09:09:07;;;;;;;14.15;11.20;;;;;;;;;;10450574;28;20398;-73
2022/08/15 09:14:22;;;;;;;17.45;10.82;;;;;;;;;;10395815;28;20029;-73
2022/08/15 09:19:28;;;;;;;22.30;10.57;;;;;;;;;;10449733;28;20106;-76
2022/08/15 09:24:28;;;;;;;15.20;11.53;;;;;;;;;;10449735;28;20051;-73
2022/08/15 09:29:30;;;;;;;15.07;9.87;;;;;;;;;;10449611;28;20105;-73
2022/08/15 09:34:49;;;;;;;18.60;10.38;;;;;;;;;;10449424;28;20103;-74
2022/08/15 09:40:12;;;;;;;16.75;10.88;;;;;;;;;;10449163;28;20501;-74
2022/08/15 09:45:18;;;;;;;13.80;9.48;;;;;;;;;;10449115;28;20055;-74
2022/08/15 09:50:19;;;;;;;14.10;9.50;;;;;;;;;;10450398;28;20102;-73
2022/08/15 09:55:44;;;;;;;11.10;8.43;;;;;;;;;;10452729;28;20087;-73
2022/08/15 10:01:03;;;;;;;10.95;7.88;;;;;;;;;;10457614;28;20123;-76
2022/08/15 10:06:05;;;;;;;8.85;7.53;;;;;;;;;;10458571;28;20120;-74
2022/08/15 10:11:11;;;;;;;12.73;8.32;;;;;;;;;;10457040;28;20079;-73
2022/08/15 10:16:30;;;;;;;11.80;7.80;;;;;;;;;;10456627;28;20021;-73
2022/08/15 10:21:32;;;;;;;12.00;8.23;;;;;;;;;;10457485;28;20519;-73
2022/08/15 10:26:34;;;;;;;9.88;7.95;;;;;;;;;;10456201;28;20471;-73
2022/08/15 10:31:38;;;;;;;14.15;7.70;;;;;;;;;;10456476;28;20406;-73
2022/08/15 10:36:38;;;;;;;12.13;7.43;;;;;;;;;;10455610;28;20025;-73
2022/08/15 10:41:51;;;;;;;11.00;7.45;;;;;;;;;;10455543;28;20057;-73
2022/08/15 10:47:27;;;;;;;7.30;6.55;;;;;;;;;;10455631;28;20029;-74
2022/08/15 10:52:28;;;;;;;;;;;;;;;;;;10319533;28;20053;-76
2022/08/15 10:57:34;;;;;;;9.43;5.28;;;;;;;;;;10438118;28;19959;-74
2022/08/15 11:02:34;;;;;;;9.77;5.70;;;;;;;;;;10452519;28;20032;-75
2022/08/15 11:07:36;;;;;;;10.45;6.22;;;;;;;;;;10452462;28;20035;-74
2022/08/15 11:12:41;;;;;;;9.60;5.90;;;;;;;;;;10457369;28;20040;-77
2022/08/15 11:17:45;;;;;;;8.55;6.28;;;;;;;;;;10448721;28;20109;-71
2022/08/15 11:22:51;;;;;;;8.13;6.32;;;;;;;;;;10450482;28;20459;-72
2022/08/15 11:28:02;;;;;;;12.63;7.95;;;;;;;;;;10453391;28;20116;-71
2022/08/15 11:33:21;;;;;;;10.15;7.43;;;;;;;;;;10453112;28;20469;-73
2022/08/15 11:38:21;;;;;;;9.25;7.53;;;;;;;;;;10434598;28;20040;-71
2022/08/15 11:43:22;;;;;;;9.98;6.97;;;;;;;;;;10448321;28;20092;-72
2022/08/15 11:48:28;;;;;;;10.38;6.90;;;;;;;;;;10448990;28;20479;-72
2022/08/15 11:53:35;;;;;;;10.37;7.17;;;;;;;;;;10451209;28;20021;-72
2022/08/15 11:58:38;;;;;;;9.35;6.90;;;;;;;;;;10451291;28;20021;-72
2022/08/15 12:03:38;;;;;;;11.60;7.30;;;;;;;;;;10452276;28;20108;-71
2022/08/15 12:08:40;;;;;;;13.52;7.32;;;;;;;;;;10450663;28;20158;-71
2022/08/15 12:13:52;;;;;;;8.73;6.50;;;;;;;;;;10450731;28;20043;-74
2022/08/15 12:18:53;;;;;;;8.95;6.63;;;;;;;;;;10450964;28;20163;-73
2022/08/15 12:23:57;;;;;;;9.02;7.05;;;;;;;;;;10450360;28;20162;-73
2022/08/15 12:28:57;;;;;;;9.50;7.18;;;;;;;;;;10450543;28;20031;-76
2022/08/15 12:34:02;;;;;;;8.68;6.43;;;;;;;;;;10450465;28;20025;-73
2022/08/15 12:39:02;;;;;;;8.82;6.70;;;;;;;;;;10449802;28;20029;-71
2022/08/15 12:44:04;;;;;;;9.02;6.65;;;;;;;;;;10449884;28;20049;-72
2022/08/15 12:49:04;;;;;;;12.35;5.50;;;;;;;;;;10449249;28;20076;-72
2022/08/15 12:54:05;;;;;;;9.52;6.57;;;;;;;;;;10450296;28;20487;-73
2022/08/15 12:59:05;;;;;;;7.53;5.90;;;;;;;;;;10449208;28;20017;-73
2022/08/15 13:04:06;;;;;;;6.93;5.28;;;;;;;;;;10448841;28;20033;-72
2022/08/15 13:09:07;;;;;;;7.53;5.45;;;;;;;;;;10448750;28;20032;-71
2022/08/15 13:14:08;;;;;;;6.65;4.97;;;;;;;;;;10448471;28;20024;-72
2022/08/15 13:19:10;;;;;;;6.72;5.32;;;;;;;;;;10448906;28;20025;-72
2022/08/15 13:24:11;;;;;;;8.82;5.95;;;;;;;;;;10449226;28;20462;-72
2022/08/15 13:29:12;;;;;;;10.23;5.93;;;;;;;;;;10450113;28;20029;-73
2022/08/15 13:34:13;;;;;;;9.43;5.85;;;;;;;;;;10449884;28;20064;-73
2022/08/15 13:39:16;;;;;;;8.57;5.53;;;;;;;;;;10448535;28;20067;-72
2022/08/15 13:44:17;;;;;;;10.35;5.78;;;;;;;;;;10448303;28;20057;-72
2022/08/15 13:49:21;;;;;;;11.45;7.43;;;;;;;;;;10448426;28;20472;-71
2022/08/15 13:54:23;;;;;;;8.90;5.78;;;;;;;;;;10448390;28;20037;-73
2022/08/15 13:59:23;;;;;;;10.43;6.15;;;;;;;;;;10448068;28;20032;-72
2022/08/15 14:04:25;;;;;;;6.82;4.95;;;;;;;;;;10447868;28;20021;-72
2022/08/15 14:09:26;;;;;;;6.20;4.70;;;;;;;;;;10447501;28;20025;-71
2022/08/15 14:14:27;;;;;;;6.68;5.25;;;;;;;;;;10447921;28;20028;-71
2022/08/15 14:19:29;;;;;;;9.60;5.85;;;;;;;;;;10447590;28;20483;-71
2022/08/15 14:24:31;;;;;;;8.05;5.45;;;;;;;;;;10448323;28;20032;-71
2022/08/15 14:29:33;;;;;;;10.15;5.68;;;;;;;;;;10446761;28;20025;-73
2022/08/15 14:34:33;;;;;;;9.93;5.28;;;;;;;;;;10446341;28;20056;-74
2022/08/15 14:39:34;;;;;;;7.50;5.35;;;;;;;;;;10440138;28;20056;-73
2022/08/15 14:44:35;;;;;;;12.25;5.53;;;;;;;;;;10453507;28;20057;-72
2022/08/15 14:49:35;;;;;;;11.82;6.28;;;;;;;;;;10456480;28;20036;-76
2022/08/15 14:54:36;;;;;;;10.27;5.57;;;;;;;;;;10452676;28;20025;-74
2022/08/15 14:59:36;;;;;;;7.90;5.90;;;;;;;;;;10452331;28;20044;-73
2022/08/15 15:04:37;;;;;;;8.40;6.25;;;;;;;;;;10454273;28;20039;-73
2022/08/15 15:09:37;;;;;;;7.93;5.88;;;;;;;;;;10449947;28;20550;-71
2022/08/15 15:14:37;;;;;;;7.03;5.67;;;;;;;;;;10433912;28;20027;-72
2022/08/15 15:19:38;;;;;;;9.80;6.30;;;;;;;;;;10449708;28;20263;-74
2022/08/15 15:24:38;;;;;;;7.63;5.47;;;;;;;;;;10425168;28;20170;-75
2022/08/15 15:29:39;;;;;;;7.23;5.83;;;;;;;;;;10447884;28;20027;-73
2022/08/15 15:34:39;;;;;;;10.43;5.38;;;;;;;;;;10432357;28;20063;-74
2022/08/15 15:39:39;;;;;;;10.48;7.15;;;;;;;;;;10443490;28;20481;-74
2022/08/15 15:44:40;;;;;;;230.73;91.25;;;;;;;;;;10451425;28;20045;-74
2022/08/15 15:49:42;;;;;;;23.42;13.02;;;;;;;;;;10452461;28;20443;-81
2022/08/15 15:54:42;;;;;;;28.48;12.77;;;;;;;;;;10446511;28;20098;-73
2022/08/15 15:59:43;;;;;;;50.77;19.53;;;;;;;;;;10433674;28;20497;-72
2022/08/15 16:04:43;;;;;;;10.18;6.72;;;;;;;;;;10423276;28;20024;-73
2022/08/15 16:09:43;;;;;;;9.73;6.70;;;;;;;;;;10447682;28;20048;-78
2022/08/15 16:14:52;;;;;;;12.85;5.72;;;;;;;;;;10443025;28;20017;-77
2022/08/15 16:19:56;;;;;;;9.07;5.68;;;;;;;;;;10445830;28;20021;-79
2022/08/15 16:25:13;;;;;;;10.35;6.30;;;;;;;;;;10430493;28;20560;-76
2022/08/15 16:30:14;;;;;;;8.53;5.77;;;;;;;;;;10450323;28;20032;-78
2022/08/15 16:35:25;;;;;;;9.43;6.60;;;;;;;;;;10431158;28;20032;-75
2022/08/15 16:40:30;;;;;;;9.88;6.03;;;;;;;;;;10423735;28;20068;-73
2022/08/15 16:45:37;;;;;;;10.48;6.13;;;;;;;;;;10429973;28;20136;-79
2022/08/15 16:50:43;;;;;;;12.65;5.97;;;;;;;;;;10444393;28;20483;-78
2022/08/15 16:55:56;;;;;;;14.27;7.55;;;;;;;;;;10419436;28;20514;-73
2022/08/15 17:01:06;;;;;;;10.90;5.85;;;;;;;;;;10430248;28;20516;-73
2022/08/15 17:06:23;;;;;;;9.30;5.90;;;;;;;;;;10426822;28;20747;-74
2022/08/15 17:11:28;;;;;;;10.17;6.20;;;;;;;;;;10444910;28;20078;-74
2022/08/15 17:16:44;;;;;;;7.75;6.10;;;;;;;;;;10422350;28;20280;-74
2022/08/15 17:21:54;;;;;;;11.93;6.47;;;;;;;;;;10425605;28;20025;-74
2022/08/15 17:26:58;;;;;;;10.55;6.38;;;;;;;;;;10441273;28;20474;-74
2022/08/15 17:31:58;;;;;;;10.27;6.93;;;;;;;;;;10424013;28;20074;-75
2022/08/15 17:36:59;;;;;;;16.43;8.97;;;;;;;;;;10448403;28;20032;-76
2022/08/15 17:42:00;;;;;;;13.02;7.25;;;;;;;;;;10427670;28;20101;-79
2022/08/15 17:47:09;;;;;;;10.13;7.07;;;;;;;;;;10443484;28;20037;-78
2022/08/15 17:52:14;;;;;;;12.85;7.60;;;;;;;;;;10419906;28;20021;-78
2022/08/15 17:57:18;;;;;;;10.70;7.63;;;;;;;;;;10416237;28;20079;-81
2022/08/15 18:02:20;;;;;;;13.02;8.52;;;;;;;;;;10421131;28;20025;-80
2022/08/15 18:07:22;;;;;;;13.20;6.78;;;;;;;;;;10443697;28;22070;-78
2022/08/15 18:12:22;;;;;;;13.50;7.55;;;;;;;;;;10438051;28;20025;-77
2022/08/15 18:17:24;;;;;;;13.75;8.95;;;;;;;;;;10432646;28;20139;-76
2022/08/15 18:22:25;;;;;;;15.82;8.38;;;;;;;;;;10436658;28;20024;-73
2022/08/15 18:27:31;;;;;;;15.30;8.38;;;;;;;;;;10449900;28;20037;-79
2022/08/15 18:32:39;;;;;;;14.38;8.98;;;;;;;;;;10429784;28;20071;-76
2022/08/15 18:37:58;;;;;;;18.27;8.68;;;;;;;;;;10450351;28;20028;-79
2022/08/15 18:43:00;;;;;;;14.25;8.48;;;;;;;;;;10433153;28;20426;-78
2022/08/15 18:48:10;;;;;;;16.50;8.40;;;;;;;;;;10444704;28;20029;-74
2022/08/15 18:53:21;;;;;;;18.15;9.45;;;;;;;;;;10453987;28;20028;-78
2022/08/15 18:58:21;;;;;;;14.27;10.98;;;;;;;;;;10431946;28;20510;-78
2022/08/15 19:03:23;;;;;;;16.60;9.32;;;;;;;;;;10434985;28;20046;-73
2022/08/15 19:08:27;;;;;;;18.17;9.00;;;;;;;;;;10435545;28;20025;-74
2022/08/15 19:13:29;;;;;;;16.92;9.82;;;;;;;;;;10436631;28;20032;-79
2022/08/15 19:18:34;;;;;;;19.98;9.52;;;;;;;;;;10436782;28;20107;-79
2022/08/15 19:23:35;;;;;;;13.52;9.18;;;;;;;;;;10407812;28;20029;-81
2022/08/15 19:28:35;;;;;;;12.70;8.48;;;;;;;;;;10407414;28;20025;-83
2022/08/15 19:33:43;;;;;;;16.10;10.10;;;;;;;;;;10418205;28;20078;-79
2022/08/15 19:38:49;;;;;;;22.83;10.70;;;;;;;;;;10416894;28;20033;-78
2022/08/15 19:44:09;;;;;;;15.57;8.63;;;;;;;;;;10413222;28;20514;-79
2022/08/15 19:54:56;;;;;;;16.60;10.85;;;;;;;;;;10409402;28;20017;-83
2022/08/15 20:00:07;;;;;;;15.00;10.10;;;;;;;;;;10405678;28;20025;-79
2022/08/15 20:05:19;;;;;;;18.50;10.05;;;;;;;;;;10412416;28;20120;-80
2022/08/15 20:10:26;;;;;;;18.88;10.68;;;;;;;;;;10408069;28;20032;-79
2022/08/15 20:15:28;;;;;;;19.60;10.60;;;;;;;;;;10413725;28;20036;-80
2022/08/15 20:20:35;;;;;;;19.27;9.88;;;;;;;;;;10408341;28;20040;-79
2022/08/15 20:25:42;;;;;;;15.38;8.55;;;;;;;;;;10412658;28;20029;-80
2022/08/15 20:30:45;;;;;;;12.63;7.90;;;;;;;;;;10429488;28;20108;-75
2022/08/15 20:35:54;;;;;;;12.60;8.98;;;;;;;;;;10399627;28;20029;-76
2022/08/15 20:40:58;;;;;;;17.58;8.57;;;;;;;;;;10403017;28;20426;-79
2022/08/15 20:46:02;;;;;;;15.30;8.82;;;;;;;;;;10406403;28;20045;-75
2022/08/15 20:51:08;;;;;;;22.42;9.55;;;;;;;;;;10420895;28;20021;-75
2022/08/15 20:56:12;;;;;;;16.50;10.15;;;;;;;;;;10411264;28;20033;-76
2022/08/15 21:01:17;;;;;;;14.07;9.35;;;;;;;;;;10411295;28;20018;-77
2022/08/15 21:06:33;;;;;;;16.83;10.27;;;;;;;;;;10413749;28;20379;-76
2022/08/15 21:11:57;;;;;;;13.77;8.90;;;;;;;;;;10414678;28;20135;-76
2022/08/15 21:17:16;;;;;;;14.45;8.80;;;;;;;;;;10407673;28;20032;-75
2022/08/15 21:22:35;;;;;;;14.70;9.73;;;;;;;;;;10409496;28;20076;-72
2022/08/15 21:27:36;;;;;;;15.77;8.90;;;;;;;;;;10415542;28;20075;-78
2022/08/15 21:32:36;;;;;;;13.68;9.90;;;;;;;;;;10411968;28;20057;-77
2022/08/15 21:37:50;;;;;;;15.43;10.13;;;;;;;;;;10405927;28;20109;-77
2022/08/15 21:42:52;;;;;;;19.17;10.20;;;;;;;;;;10409690;28;20060;-77
2022/08/15 21:48:12;;;;;;;15.52;9.43;;;;;;;;;;10423936;28;20076;-75
2022/08/15 21:53:31;;;;;;;16.23;9.70;;;;;;;;;;10425524;28;20128;-73
2022/08/15 21:58:31;;;;;;;14.38;9.82;;;;;;;;;;10430195;28;20032;-73
2022/08/15 22:03:35;;;;;;;17.85;9.18;;;;;;;;;;10430992;28;20040;-74
2022/08/15 22:08:37;;;;;;;13.88;9.52;;;;;;;;;;10413962;28;20036;-74
2022/08/15 22:13:38;;;;;;;14.30;9.93;;;;;;;;;;10419378;28;20490;-79
2022/08/15 22:18:39;;;;;;;17.10;10.15;;;;;;;;;;10423561;28;20478;-81
2022/08/15 22:23:39;;;;;;;15.93;10.43;;;;;;;;;;10421345;28;20032;-75
2022/08/15 22:28:40;;;;;;;16.40;9.15;;;;;;;;;;10423481;28;20025;-78
2022/08/15 22:33:40;;;;;;;17.43;10.03;;;;;;;;;;10406871;28;20030;-73
2022/08/15 22:38:41;;;;;;;19.30;8.67;;;;;;;;;;10411766;28;20025;-77
2022/08/15 22:43:42;;;;;;;11.97;8.00;;;;;;;;;;10417366;28;20685;-72
2022/08/15 22:48:43;;;;;;;13.70;9.10;;;;;;;;;;10442051;28;20116;-72
2022/08/15 22:53:44;;;;;;;12.40;7.78;;;;;;;;;;10454602;28;20501;-73
2022/08/15 22:58:46;;;;;;;13.32;8.18;;;;;;;;;;10471610;28;20025;-73
2022/08/15 23:03:47;;;;;;;12.38;7.18;;;;;;;;;;10399582;28;20017;-76
2022/08/15 23:08:49;;;;;;;11.02;7.47;;;;;;;;;;10454312;28;20387;-73
2022/08/15 23:13:53;;;;;;;12.25;8.27;;;;;;;;;;10460662;28;20032;-81
2022/08/15 23:19:04;;;;;;;16.80;9.13;;;;;;;;;;10470576;28;20060;-75
2022/08/15 23:24:08;;;;;;;16.45;7.90;;;;;;;;;;10437124;28;20494;-76
2022/08/15 23:29:15;;;;;;;13.30;8.65;;;;;;;;;;10454862;28;20048;-76
2022/08/15 23:34:16;;;;;;;13.77;8.90;;;;;;;;;;10470332;28;20037;-74
2022/08/15 23:39:17;;;;;;;16.92;8.95;;;;;;;;;;10450063;28;20033;-73
2022/08/15 23:44:18;;;;;;;11.98;8.70;;;;;;;;;;10432599;28;20068;-75
2022/08/15 23:49:18;;;;;;;12.35;8.07;;;;;;;;;;10469710;28;20036;-74
2022/08/15 23:54:22;;;;;;;13.98;9.20;;;;;;;;;;10469085;28;20021;-75
2022/08/15 23:59:25;;;;;;;14.05;9.32;;;;;;;;;;10429149;28;20018;-75
